Latest Weather Observations for Norfolk Island

IDN60801

Issued at 5:32 pm EST Thursday 17 August 2017 (issued every 30 minutes, with the page automatically refreshed every 10 minutes)

About weather observations | Map of weather stations | Latest weather observations for NSW | Other Formats
Station Details ID: 200288 Name: NORFOLK ISLAND AERO Lat: -29.04 Lon: 167.94 Height: 111.73 m
Data from the previous 72 hours. | See also: Recent months at Norfolk Island
Date/Time
EST
Temp
°C
App
Temp
°C
Dew
Point
°C
Rel
Hum
%
Delta-T
°C
Wind Press
QNH
hPa
Press
MSL
hPa
Rain since
9am
mm
Dir  Spd
km/h
Gust
km/h
Spd
kts
Gust
kts
17/05:30pm 17.6 - - - - NW 17 30 9 16 1014.7 1014.5 0.0
17/05:00pm 17.6 - - - - WNW 15 26 8 14 1014.6 1014.4 0.0
17/04:30pm 17.6 - - - - WNW 17 26 9 14 1014.6 1014.4 0.0
17/04:00pm 18.0 - - - - W 17 24 9 13 1014.8 1014.6 0.0
17/03:30pm 18.6 - - - - WSW 19 32 10 17 1014.7 1014.5 0.0
17/03:00pm 18.8 - - - - W 19 32 10 17 1014.5 1014.3 0.0
17/02:30pm 19.4 - - - - WSW 19 28 10 15 1014.9 1014.7 0.0
17/02:00pm 19.5 - - - - WSW 17 28 9 15 1014.9 1014.7 0.0
17/01:30pm 19.3 - - - - WSW 17 26 9 14 1015.1 1014.9 0.0
17/01:00pm 20.0 - - - - WSW 20 30 11 16 1015.4 1015.2 0.0
17/12:30pm 19.6 - - - - WSW 20 32 11 17 1015.6 1015.4 0.0
17/12:00pm 19.9 - - - - WSW 19 26 10 14 1016.2 1016.0 0.0
17/11:30am 19.3 - - - - WSW 20 32 11 17 1016.6 1016.4 0.0
17/11:00am 19.3 16.2 12.1 63 4.0 WSW 20 30 11 16 1017.0 1016.8 0.0
17/10:30am 19.4 16.4 12.5 64 3.9 WSW 20 30 11 16 1017.3 1017.1 0.0
17/10:00am 19.1 16.0 11.5 61 4.2 WSW 19 30 10 16 1017.4 1017.2 0.0
17/09:30am 19.2 16.2 12.4 64 3.8 SW 20 30 11 16 1017.6 1017.4 0.0
17/09:00am 19.0 - - - - WSW 19 30 10 16 1017.9 1017.7 0.0
17/08:30am 18.8 - - - - W 17 28 9 15 1017.9 1017.7 0.0
17/08:00am 18.2 15.8 12.5 69 3.2 WSW 17 26 9 14 1017.9 1017.7 0.0
17/07:30am 17.7 15.3 11.5 67 3.4 W 15 26 8 14 1017.9 1017.7 0.0
17/07:00am 17.4 15.5 11.7 69 3.1 NW 13 22 7 12 1018.0 1017.8 0.0
17/06:30am 17.3 - - - - N 11 19 6 10 1017.9 1017.7 0.0
17/06:00am 16.4 - - - - NW 11 17 6 9 1017.7 1017.5 0.0
17/05:30am 15.9 - - - - NNW 11 17 6 9 1017.6 1017.4 0.0
17/05:00am 15.8 - - - - NNW 11 19 6 10 1017.3 1017.1 0.0
17/04:30am 15.9 - - - - NW 9 13 5 7 1017.0 1016.8 0.0
17/04:00am 15.6 - - - - N 11 17 6 9 1017.0 1016.8 0.0
17/03:30am 15.9 - - - - N 11 22 6 12 1017.1 1016.9 0.0
17/03:00am 15.9 - - - - NNW 9 17 5 9 1017.2 1017.0 0.0
17/02:30am 15.7 - - - - N 11 17 6 9 1017.1 1016.9 0.0
17/02:00am 15.8 - - - - N 11 19 6 10 1017.2 1017.0 0.0
17/01:30am 15.5 - - - - N 11 19 6 10 1017.2 1017.0 0.0
17/01:00am 15.7 - - - - NNE 11 20 6 11 1017.7 1017.5 0.0
17/12:30am 15.4 - - - - NNE 9 15 5 8 1018.3 1018.2 0.0
17/12:00am 15.5 - - - - N 9 15 5 8 1018.8 1018.7 0.0
 
Date/Time
EST
Temp
°C
App
Temp
°C
Dew
Point
°C
Rel
Hum
%
Delta-T
°C
Wind Press
QNH
hPa
Press
MSL
hPa
Rain since
9am
mm
Dir  Spd
km/h
Gust
km/h
Spd
kts
Gust
kts
16/11:30pm 15.4 - - - - N 9 15 5 8 1019.0 1018.9 0.0
16/11:00pm 15.3 - - - - NNE 9 15 5 8 1019.2 1019.1 0.0
16/10:30pm 15.3 - - - - N 7 13 4 7 1019.4 1019.3 0.0
16/10:00pm 15.4 - - - - NNE 9 17 5 9 1019.4 1019.3 0.0
16/09:30pm 15.1 - - - - NNE 7 11 4 6 1019.5 1019.4 0.0
16/09:00pm 15.1 - - - - NNE 9 15 5 8 1019.6 1019.5 0.0
16/08:30pm 15.3 - - - - N 7 13 4 7 1019.6 1019.5 0.0
16/08:00pm 15.3 - - - - N 7 11 4 6 1019.7 1019.6 0.0
16/07:30pm 15.1 - - - - NNE 7 13 4 7 1019.4 1019.3 0.0
16/07:00pm 15.1 - - - - N 6 11 3 6 1019.6 1019.5 0.0
16/06:30pm 14.9 - - - - NNE 7 11 4 6 1019.5 1019.4 0.0
16/06:00pm 15.0 - - - - NNE 7 11 4 6 1019.5 1019.4 0.0
16/05:30pm 14.7 - - - - N 7 11 4 6 1019.1 1019.0 0.0
16/05:00pm 14.7 - - - - NNE 7 9 4 5 1018.9 1018.8 0.0
16/04:30pm 15.0 - - - - NNE 9 13 5 7 1018.4 1018.3 0.0
16/04:00pm 15.3 - - - - NNE 9 15 5 8 1018.4 1018.3 0.0
16/03:30pm 16.1 - - - - NE 11 17 6 9 1018.3 1018.2 0.0
16/03:00pm 16.5 13.6 8.3 58 4.2 NE 13 20 7 11 1018.3 1018.2 0.0
16/02:30pm 17.1 13.9 8.3 56 4.5 NE 15 20 8 11 1018.1 1017.9 0.0
16/02:00pm 17.0 14.0 9.3 60 4.0 NE 15 20 8 11 1018.4 1018.3 0.0
16/01:30pm 17.3 14.0 9.7 61 4.0 ENE 17 28 9 15 1018.6 1018.5 0.0
16/01:00pm 17.3 14.0 9.5 60 4.1 NE 17 26 9 14 1018.7 1018.6 0.0
16/12:30pm 17.4 14.2 9.8 61 4.0 ENE 17 26 9 14 1019.1 1019.0 0.0
16/12:00pm 18.2 16.0 10.8 62 4.0 ENE 13 20 7 11 1019.4 1019.3 0.0
16/11:30am 17.4 - - - - NE 17 28 9 15 1019.4 1019.3 0.0
16/11:00am 17.1 15.7 9.5 61 4.0 NE 7 13 4 7 1019.9 1019.8 0.0
16/10:30am 16.7 - - - - SE 6 11 3 6 1020.2 1020.1 0.0
16/10:00am 16.9 14.7 9.4 61 3.9 SE 11 15 6 8 1020.5 1020.4 0.0
16/09:30am 17.5 - - - - SSE 9 17 5 9 1021.0 1020.9 0.0
16/09:00am 17.1 15.3 9.5 61 4.0 ESE 9 15 5 8 1021.3 1021.2 0.0
16/08:30am 16.7 15.0 9.9 64 3.6 SE 9 13 5 7 1021.4 1021.3 0.0
16/08:00am 16.4 14.8 10.2 66 3.3 SE 9 17 5 9 1021.6 1021.5 2.2
16/07:30am 16.6 15.5 10.8 68 3.1 ESE 7 9 4 5 1021.5 1021.4 2.2
16/07:00am 16.1 15.5 11.7 75 2.4 ENE 6 11 3 6 1021.3 1021.2 2.2
16/06:30am 15.5 - - - - CALM 0 4 0 2 1021.4 1021.3 2.2
16/06:00am 12.7 - - - - ENE 7 7 4 4 1020.6 1020.5 2.2
16/05:30am 12.0 - - - - ENE 7 7 4 4 1020.4 1020.3 2.2
16/05:00am 11.7 - - - - ENE 9 9 5 5 1020.1 1020.0 2.2
16/04:30am 12.5 - - - - ENE 9 9 5 5 1019.9 1019.8 2.2
16/04:00am 12.5 - - - - SE 6 7 3 4 1020.2 1020.1 2.2
16/03:30am 12.5 - - - - SE 7 9 4 5 1019.6 1019.5 2.2
16/03:00am 12.4 - - - - CALM 0 4 0 2 1019.8 1019.7 2.2
16/02:30am 12.4 - - - - SE 7 7 4 4 1019.3 1019.2 2.2
16/02:00am 12.9 - - - - SE 6 7 3 4 1019.6 1019.5 2.0
16/01:30am 12.4 - - - - SE 6 7 3 4 1019.4 1019.3 2.0
16/01:00am 12.2 - - - - CALM 0 0 0 0 1019.4 1019.3 2.0
16/12:30am 11.8 - - - - CALM 0 0 0 0 1019.7 1019.6 2.0
16/12:00am 12.3 - - - - CALM 0 0 0 0 1019.7 1019.6 2.0
 
Date/Time
EST
Temp
°C
App
Temp
°C
Dew
Point
°C
Rel
Hum
%
Delta-T
°C
Wind Press
QNH
hPa
Press
MSL
hPa
Rain since
9am
mm
Dir  Spd
km/h
Gust
km/h
Spd
kts
Gust
kts
15/11:30pm 12.8 - - - - SE 6 7 3 4 1019.6 1019.5 2.0
15/11:00pm 11.2 - - - - SE 7 7 4 4 1019.3 1019.2 2.0
15/10:30pm 12.8 - - - - CALM 0 0 0 0 1019.2 1019.1 2.0
15/10:00pm 11.9 - - - - CALM 0 0 0 0 1019.3 1019.2 2.0
15/09:30pm 12.5 - - - - SE 4 7 2 4 1019.4 1019.3 2.0
15/09:00pm 12.5 - - - - SE 6 6 3 3 1019.6 1019.5 2.0
15/08:30pm 12.5 - - - - SE 7 7 4 4 1019.8 1019.7 2.0
15/08:00pm 12.3 - - - - SE 7 9 4 5 1019.8 1019.7 2.0
15/07:30pm 12.7 - - - - SSE 6 9 3 5 1020.1 1020.0 2.0
15/07:00pm 13.2 - - - - SE 9 11 5 6 1019.9 1019.8 2.0
15/06:30pm 12.2 - - - - SE 7 9 4 5 1019.3 1019.2 2.0
15/06:00pm 13.0 - - - - CALM 0 2 0 1 1019.1 1019.0 2.0
15/05:30pm 13.9 - - - - SE 7 9 4 5 1019.0 1018.9 2.0
15/05:00pm 13.7 - - - - SSE 9 13 5 7 1018.7 1018.6 2.0
15/04:30pm 13.9 - - - - SSE 9 11 5 6 1018.3 1018.2 2.0
15/04:00pm 14.6 - - - - S 11 17 6 9 1018.0 1017.8 2.0
15/03:30pm 15.6 - - - - SSE 9 15 5 8 1017.7 1017.5 2.0
15/03:00pm 15.4 - - - - SSE 9 13 5 7 1017.5 1017.3 2.0
15/02:30pm 15.4 - - - - SE 9 13 5 7 1017.2 1017.0 2.0
15/02:00pm 15.0 - - - - ESE 9 11 5 6 1017.1 1016.9 2.0
15/01:30pm 13.8 - - - - ESE 9 11 5 6 1017.2 1017.0 2.0
15/01:09pm 13.6 - - - - SE 13 15 7 8 1017.3 1017.1 2.0
15/01:00pm 13.4 - - - - SSE 13 17 7 9 1017.4 1017.2 2.0
15/12:44pm 13.2 - - - - S 24 33 13 18 1017.6 1017.4 0.6
15/12:30pm 15.9 - - - - SE 15 22 8 12 1017.4 1017.2 0.0
15/12:00pm 16.8 - - - - SSE 17 26 9 14 1017.5 1017.3 0.0
15/11:30am 16.9 - - - - S 13 20 7 11 1017.7 1017.5 0.0
15/11:00am 16.9 14.2 9.0 59 4.1 SSW 13 17 7 9 1018.3 1018.2 0.0
15/10:30am 16.4 - - - - SSE 9 15 5 8 1018.6 1018.5 0.0
15/10:00am 16.4 - - - - S 13 17 7 9 1018.8 1018.7 0.0
15/09:30am 17.3 - - - - SSW 9 13 5 7 1018.9 1018.8 0.0
15/09:00am 16.3 15.2 9.8 65 3.4 SE 6 13 3 7 1019.0 1018.9 0.0
15/08:30am 16.3 - - - - ESE 9 13 5 7 1019.0 1018.9 0.0
15/08:00am 16.1 14.5 11.5 74 2.5 ESE 11 15 6 8 1019.1 1019.0 3.0
15/07:30am 15.9 13.5 8.7 62 3.7 SSE 11 13 6 7 1019.0 1018.9 3.0
15/07:00am 15.4 13.0 11.5 77 2.1 SSE 15 17 8 9 1018.8 1018.7 3.0
15/06:30am 14.8 - - - - SSE 15 22 8 12 1018.6 1018.5 3.0
15/06:00am 13.1 - - - - S 6 9 3 5 1018.3 1018.2 3.0
15/05:30am 12.7 - - - - SSE 7 9 4 5 1018.1 1017.9 3.0
15/05:00am 12.6 - - - - SSE 7 11 4 6 1017.7 1017.5 3.0
15/04:30am 14.2 - - - - S 7 9 4 5 1017.4 1017.2 3.0
15/04:00am 13.9 - - - - S 9 13 5 7 1017.1 1016.9 3.0
15/03:30am 13.3 - - - - S 7 11 4 6 1017.0 1016.8 3.0
15/03:00am 13.2 - - - - SSE 7 9 4 5 1016.7 1016.5 3.0
15/02:30am 13.3 - - - - SSE 9 13 5 7 1016.5 1016.3 3.0
15/02:00am 13.4 - - - - SSE 9 15 5 8 1016.6 1016.4 3.0
15/01:30am 14.0 - - - - SSW 17 26 9 14 1016.7 1016.5 2.8
15/01:26am 14.1 - - - - SSW 13 26 7 14 1016.7 1016.5 2.8
15/01:07am 14.1 - - - - S 17 26 9 14 1016.8 1016.6 2.4
15/01:00am 15.2 - - - - SSW 15 20 8 11 1016.6 1016.4 1.4
15/12:30am 14.5 - - - - SSW 15 19 8 10 1016.8 1016.6 1.4
15/12:00am 14.2 - - - - SSW 13 20 7 11 1017.0 1016.8 1.4
 
Date/Time
EST
Temp
°C
App
Temp
°C
Dew
Point
°C
Rel
Hum
%
Delta-T
°C
Wind Press
QNH
hPa
Press
MSL
hPa
Rain since
9am
mm
Dir  Spd
km/h
Gust
km/h
Spd
kts
Gust
kts
14/11:30pm 14.6 - - - - SSW 17 28 9 15 1017.2 1017.0 1.4
14/11:00pm 14.3 - - - - SSW 15 19 8 10 1017.3 1017.1 1.4
14/10:30pm 14.3 - - - - SSW 13 19 7 10 1017.4 1017.2 1.4
14/10:00pm 14.3 - - - - S 13 19 7 10 1017.3 1017.1 1.4
14/09:30pm 14.6 - - - - S 15 26 8 14 1017.2 1017.0 1.4
14/09:00pm 13.5 - - - - SSW 9 13 5 7 1017.2 1017.0 1.4
14/08:40pm 14.1 - - - - SSW 9 13 5 7 1017.3 1017.1 1.4
14/08:30pm 14.5 - - - - S 13 20 7 11 1017.3 1017.1 1.4
14/08:25pm 14.7 - - - - S 13 20 7 11 1017.3 1017.1 1.4
14/08:00pm 14.9 - - - - S 13 20 7 11 1017.3 1017.1 0.6
14/07:30pm 14.5 - - - - S 9 11 5 6 1017.4 1017.2 0.6
14/07:00pm 15.2 - - - - S 15 20 8 11 1017.3 1017.1 0.6
14/06:30pm 15.3 - - - - S 15 26 8 14 1017.1 1016.9 0.6
14/06:00pm 15.2 - - - - S 15 19 8 10 1017.0 1016.8 0.6
14/05:30pm 15.3 - - - - S 13 19 7 10 1016.8 1016.6 0.6
14/05:00pm 15.5 - - - - S 17 26 9 14 1016.6 1016.4 0.6
14/04:30pm 15.7 - - - - S 17 26 9 14 1016.2 1016.0 0.6

Other Formats:

Comma delimited format used in spreadsheet applications
http://www.bom.gov.au/fwo/IDN60801/IDN60801.94996.axf

JavaScript Object Notation format (JSON) in row-major order
http://www.bom.gov.au/fwo/IDN60801/IDN60801.94996.json